cloudbaseCU.php : Version 1.5 - copyright 2013 Silver Acorn Limited
Date/Time : Thu, 25 Apr 2019 16:42:45 (Day)
Time Zone : Europe/London (GMT+1 hours)
INPUT ITEM: RAW DATA -> DERIVED
    Current temp : 12.9 -> 12.9 °C
    Dewpoint : 9.0 -> 9.0 °C
    Rain Fall : 0.6 -> 0.6 mm
    Barometer : 995.3 -> 995 hPa
    Humidity : 37 -> 37 %
    Wind Speed : 1.8 -> 1.8 mph
    Wind Dir : 121.0 -> 121.0 degrees
    Cloud Altitude : 1560 -> 1560 ft (AGL)
    Latitude : 54 -> N = Northern Hemisphere
    Season : -> Spring
    Moon Age : 20 -> 20 days
    Is daylight : 1 -> Day
    Realtime file Interval : 15 -> 15 Seconds
    Tag file time Interval : 5 -> 5 Minutes
CUMULUS CONDITIONS
    Cumulus conditions not in use
    Zambretti # : 0 -> 0
METAR CONDITONS - Metar Times UNC, Update Station times based on timezone setting
    $pathToMetFile : ./cache/
    Metar - Rawdata : 2019/04/25 15:20 EGAC 251520Z AUTO 13011KT 100V160 9999 SCT022/// BKN041/// 12/08 Q0994
    Metar - Trimmed : 251520Z AUTO 13011KT 100V160 9999 SCT022 BKN041 12/08 Q0994
    Metar - Decoded : Not Raining; Scattered clouds, Mostly cloudy
    Now : 1556206965 seconds or Station Time of 16:42:45
    Metar report timestamp : 1556205600 seconds
    Age of File : 22.75 minutes
    When to update Metar : 1556207940 seconds (When station time ~ 16:59:00)
        (Metar report timestamp plus 39 mins refresh time)
    Next Download in : 16.25 Minutes (if  '-' then refresh page, if still '-' then download overdue!)
    Metar file : Existing file re-used
    Note:- Metar updates are usually Hourly unless AUTO when they may update every 30 minutes
OUTPUT DATA

    $showAGLASL : true
Cloud Temp : 4 °C
Background image file name : ./images/cb/cb-bg-00sprd.png
    $useWXrain : true
    $tagint : 5
    Last rain : 41 minutes ago
    $wxrain : false
"useWXrain" results :-
    No rain in last 5 minutes -> Not raining
SETTINGS
    $realtime : cloudbase.txt
    $metarICAO : EGAC
    $pathToMetFile : ./cache/
    $tz : Europe/London - The setting in this script, may be overidden by the Saratoga SITE setting
    $pathToImages : ./images/cb/
    $pathToMoonImages : ./images/cb/moon/
    $translate : true
    $switchSeasons : true
    $showCldSource : true
    $showCloudTemp : true
    $showCaption : true
    $showMoon : true
    $showScale : true
    $showWinsock : false
    $showWindDir : false
    $showWindSpd : false
    $showTemp : false
    $showHumidity : false
    $showBaro : false
    $alwaysShowCloud : false
    $useCUHeight : false
    $getMetar : true
    $metarRefresh : true
    $useMetarAtNight : true
    $onlyUseMetar : true
    $reportMistAt : 25 ft
    $stationAltitude : 0 ft